Flugplatz Eichstätt (EDPE)

Hier findest Du alle Informationen zum Flugplatz Eichstätt (EDPE).

Informationen für Piloten zum Flugplatz Eichstätt

Hier findest Du alle relevanten Informationen, die Du als Pilot benötigst, um Eichstätt anzufliegen.

Flugplatz: Eichstätt ICAO-Code: EDPE
Frequenz Turm: 123,000 Mhz GAFOR Gebiet: 63
Frequenz Ground: 123,000 Mhz Mogas: ja
Platzrunde: S 2500 ft Landegebühr: -
Platzhöhe: - Sunrise: 06:42 Uhr UTC
Pisten: 11/29 - 526 m x 35 m, GRAS Sunset: 15:24 Uhr UTC

Mitglieder, die in Eichstätt fliegen

Flugwetter am Flugplatz Eichstätt

Die METAR Information stammen aus EDMA (53.45 km entfernt).

METAR Code:
2020/11/25 17:50
EDMA 251750Z 19004KT 150V210 1400 R25/P2000N BR OVC002 01/00 Q1022

Flugschulen am Flugplatz Eichstätt

Am Flugplatz Eichstätt gibt es leider keine Flugschule.

Benachbarte Flugplätze und Flugschulen

Es gibt 18 weitere Flugplätze in einem Umkreis von 50 km um den Flugplatz Eichstätt.

Jetzt anmelden

Passwort vergessen

Umfrage Archiv

Wie viele Flugstunden seid Ihr in Eurer Pilotenausbildung geflogen?

31 - 40 Stunden
50.9 %
41 - 50 Stunden
20.8 %
exakt 30 Stunden
15.1 %
über 60 Stunden
7.5 %
51 - 60 Stunden
5.7 %
Stimmen: 53 | Diskussion
Anzeige: Roland Aircraft
Statistik Alle Mitglieder

Aktuell sind 38 Besucher online, davon 1 Mitglied und 37 Gäste.


Mitglieder online:
Marvin_0 

Anzeige: VFR Sprechfunk Simulator


Anzeige: Pocket FMS